sensor_id;sensor_type;location;lat;lon;timestamp;temperature;humidity
9808;DHT22;4943;52.550;13.462;2022-12-07T00:01:47;6.20;99.90
9808;DHT22;4943;52.550;13.462;2022-12-07T00:04:17;6.20;99.90
9808;DHT22;4943;52.550;13.462;2022-12-07T00:06:50;6.20;99.90
9808;DHT22;4943;52.550;13.462;2022-12-07T00:09:21;6.20;99.90
9808;DHT22;4943;52.550;13.462;2022-12-07T00:11:51;6.20;99.90
9808;DHT22;4943;52.550;13.462;2022-12-07T00:14:21;6.20;99.90
9808;DHT22;4943;52.550;13.462;2022-12-07T00:16:50;6.20;99.90
9808;DHT22;4943;52.550;13.462;2022-12-07T00:19:19;6.20;99.90
9808;DHT22;4943;52.550;13.462;2022-12-07T00:21:48;6.10;99.90
9808;DHT22;4943;52.550;13.462;2022-12-07T00:24:17;6.20;99.90
9808;DHT22;4943;52.550;13.462;2022-12-07T00:26:45;6.10;99.90
9808;DHT22;4943;52.550;13.462;2022-12-07T00:29:18;6.10;99.90
9808;DHT22;4943;52.550;13.462;2022-12-07T00:31:47;6.10;99.90
9808;DHT22;4943;52.550;13.462;2022-12-07T00:34:18;6.00;99.90
9808;DHT22;4943;52.550;13.462;2022-12-07T00:36:47;6.10;99.90
9808;DHT22;4943;52.550;13.462;2022-12-07T00:39:16;6.10;99.90
9808;DHT22;4943;52.550;13.462;2022-12-07T00:41:44;6.10;99.90
9808;DHT22;4943;52.550;13.462;2022-12-07T00:44:13;6.20;99.90
9808;DHT22;4943;52.550;13.462;2022-12-07T00:46:43;6.20;99.90
9808;DHT22;4943;52.550;13.462;2022-12-07T00:49:12;6.20;99.90
9808;DHT22;4943;52.550;13.462;2022-12-07T00:51:41;6.20;99.90
9808;DHT22;4943;52.550;13.462;2022-12-07T00:54:09;6.20;99.90
9808;DHT22;4943;52.550;13.462;2022-12-07T00:56:38;6.20;99.90
9808;DHT22;4943;52.550;13.462;2022-12-07T00:59:06;6.20;99.90
9808;DHT22;4943;52.550;13.462;2022-12-07T01:01:36;6.20;99.90
9808;DHT22;4943;52.550;13.462;2022-12-07T01:04:06;6.20;99.90
9808;DHT22;4943;52.550;13.462;2022-12-07T01:06:35;6.20;99.90
9808;DHT22;4943;52.550;13.462;2022-12-07T01:09:04;6.20;99.90
9808;DHT22;4943;52.550;13.462;2022-12-07T01:11:33;6.20;99.90
9808;DHT22;4943;52.550;13.462;2022-12-07T01:14:02;6.10;99.90
9808;DHT22;4943;52.550;13.462;2022-12-07T01:16:32;6.00;99.90
9808;DHT22;4943;52.550;13.462;2022-12-07T01:19:01;6.00;99.90
9808;DHT22;4943;52.550;13.462;2022-12-07T01:21:34;6.00;99.90
9808;DHT22;4943;52.550;13.462;2022-12-07T01:24:06;5.90;99.90
9808;DHT22;4943;52.550;13.462;2022-12-07T01:26:35;5.90;99.90
9808;DHT22;4943;52.550;13.462;2022-12-07T01:29:03;5.90;99.90
9808;DHT22;4943;52.550;13.462;2022-12-07T01:31:32;6.00;99.90
9808;DHT22;4943;52.550;13.462;2022-12-07T01:34:01;6.10;99.90
9808;DHT22;4943;52.550;13.462;2022-12-07T01:36:32;6.10;99.90
9808;DHT22;4943;52.550;13.462;2022-12-07T01:39:04;6.10;99.90
9808;DHT22;4943;52.550;13.462;2022-12-07T01:41:34;6.10;99.90
9808;DHT22;4943;52.550;13.462;2022-12-07T01:44:13;6.10;99.90
9808;DHT22;4943;52.550;13.462;2022-12-07T01:46:44;6.10;99.90
9808;DHT22;4943;52.550;13.462;2022-12-07T01:49:17;6.10;99.90
9808;DHT22;4943;52.550;13.462;2022-12-07T01:51:49;6.10;99.90
9808;DHT22;4943;52.550;13.462;2022-12-07T01:54:20;6.10;99.90
9808;DHT22;4943;52.550;13.462;2022-12-07T01:56:53;6.00;99.90
9808;DHT22;4943;52.550;13.462;2022-12-07T01:59:23;6.00;99.90
9808;DHT22;4943;52.550;13.462;2022-12-07T02:01:54;6.00;99.90
9808;DHT22;4943;52.550;13.462;2022-12-07T02:04:24;6.00;99.90
9808;DHT22;4943;52.550;13.462;2022-12-07T02:06:54;6.00;99.90
9808;DHT22;4943;52.550;13.462;2022-12-07T02:09:24;6.10;99.90
9808;DHT22;4943;52.550;13.462;2022-12-07T02:11:54;6.10;99.90
9808;DHT22;4943;52.550;13.462;2022-12-07T02:14:23;6.10;99.90
9808;DHT22;4943;52.550;13.462;2022-12-07T02:17:01;6.10;99.90
9808;DHT22;4943;52.550;13.462;2022-12-07T02:20:09;6.20;99.90
9808;DHT22;4943;52.550;13.462;2022-12-07T02:22:58;6.20;99.90
9808;DHT22;4943;52.550;13.462;2022-12-07T02:25:43;6.20;99.90
9808;DHT22;4943;52.550;13.462;2022-12-07T02:28:26;6.20;99.90
9808;DHT22;4943;52.550;13.462;2022-12-07T02:31:02;6.10;99.90
9808;DHT22;4943;52.550;13.462;2022-12-07T02:33:36;6.10;99.90
9808;DHT22;4943;52.550;13.462;2022-12-07T02:36:08;6.10;99.90
9808;DHT22;4943;52.550;13.462;2022-12-07T02:38:43;6.10;99.90
9808;DHT22;4943;52.550;13.462;2022-12-07T02:41:17;6.00;99.90
9808;DHT22;4943;52.550;13.462;2022-12-07T02:43:50;6.00;99.90
9808;DHT22;4943;52.550;13.462;2022-12-07T02:46:25;6.00;99.90
9808;DHT22;4943;52.550;13.462;2022-12-07T02:48:55;6.00;99.90
9808;DHT22;4943;52.550;13.462;2022-12-07T02:51:29;6.00;99.90
9808;DHT22;4943;52.550;13.462;2022-12-07T02:53:59;6.00;99.90
9808;DHT22;4943;52.550;13.462;2022-12-07T02:56:34;6.00;99.90
9808;DHT22;4943;52.550;13.462;2022-12-07T02:59:14;6.00;99.90
9808;DHT22;4943;52.550;13.462;2022-12-07T03:01:53;6.00;99.90
9808;DHT22;4943;52.550;13.462;2022-12-07T03:04:34;6.00;99.90
9808;DHT22;4943;52.550;13.462;2022-12-07T03:07:11;6.00;99.90
9808;DHT22;4943;52.550;13.462;2022-12-07T03:09:50;6.00;99.90
9808;DHT22;4943;52.550;13.462;2022-12-07T03:12:27;6.10;99.90
9808;DHT22;4943;52.550;13.462;2022-12-07T03:15:02;6.10;99.90
9808;DHT22;4943;52.550;13.462;2022-12-07T03:17:37;6.00;99.90
9808;DHT22;4943;52.550;13.462;2022-12-07T03:20:10;6.00;99.90
9808;DHT22;4943;52.550;13.462;2022-12-07T03:22:42;6.00;99.90
9808;DHT22;4943;52.550;13.462;2022-12-07T03:25:13;6.00;99.90
9808;DHT22;4943;52.550;13.462;2022-12-07T03:27:48;6.00;99.90
9808;DHT22;4943;52.550;13.462;2022-12-07T03:30:21;6.00;99.90
9808;DHT22;4943;52.550;13.462;2022-12-07T03:32:56;6.00;99.90
9808;DHT22;4943;52.550;13.462;2022-12-07T03:35:29;6.00;99.90
9808;DHT22;4943;52.550;13.462;2022-12-07T03:38:02;6.00;99.90
9808;DHT22;4943;52.550;13.462;2022-12-07T03:40:39;6.00;99.90
9808;DHT22;4943;52.550;13.462;2022-12-07T03:43:09;6.00;99.90
9808;DHT22;4943;52.550;13.462;2022-12-07T03:45:40;6.10;99.90
9808;DHT22;4943;52.550;13.462;2022-12-07T03:48:16;6.10;99.90
9808;DHT22;4943;52.550;13.462;2022-12-07T03:50:53;6.10;99.90
9808;DHT22;4943;52.550;13.462;2022-12-07T03:53:29;6.10;99.90
9808;DHT22;4943;52.550;13.462;2022-12-07T03:56:00;6.20;99.90
9808;DHT22;4943;52.550;13.462;2022-12-07T03:58:30;6.20;99.90
9808;DHT22;4943;52.550;13.462;2022-12-07T04:00:59;6.20;99.90
9808;DHT22;4943;52.550;13.462;2022-12-07T04:03:29;6.20;99.90
9808;DHT22;4943;52.550;13.462;2022-12-07T04:05:58;6.20;99.90
9808;DHT22;4943;52.550;13.462;2022-12-07T04:08:27;6.20;99.90
9808;DHT22;4943;52.550;13.462;2022-12-07T04:10:55;6.20;99.90
9808;DHT22;4943;52.550;13.462;2022-12-07T04:13:24;6.20;99.90
9808;DHT22;4943;52.550;13.462;2022-12-07T04:15:52;6.20;99.90
9808;DHT22;4943;52.550;13.462;2022-12-07T04:18:21;6.20;99.90
9808;DHT22;4943;52.550;13.462;2022-12-07T04:20:51;6.20;99.90
9808;DHT22;4943;52.550;13.462;2022-12-07T04:23:19;6.20;99.90
9808;DHT22;4943;52.550;13.462;2022-12-07T04:25:48;6.20;99.90
9808;DHT22;4943;52.550;13.462;2022-12-07T04:28:16;6.20;99.90
9808;DHT22;4943;52.550;13.462;2022-12-07T04:30:45;6.20;99.90
9808;DHT22;4943;52.550;13.462;2022-12-07T04:33:14;6.20;99.90
9808;DHT22;4943;52.550;13.462;2022-12-07T04:35:43;6.20;99.90
9808;DHT22;4943;52.550;13.462;2022-12-07T04:38:13;6.20;99.90
9808;DHT22;4943;52.550;13.462;2022-12-07T04:40:41;6.20;99.90
9808;DHT22;4943;52.550;13.462;2022-12-07T04:43:10;6.20;99.90
9808;DHT22;4943;52.550;13.462;2022-12-07T04:45:38;6.20;99.90
9808;DHT22;4943;52.550;13.462;2022-12-07T04:48:07;6.20;99.90
9808;DHT22;4943;52.550;13.462;2022-12-07T04:50:36;6.20;99.90
9808;DHT22;4943;52.550;13.462;2022-12-07T04:53:13;6.20;99.90
9808;DHT22;4943;52.550;13.462;2022-12-07T04:55:42;6.20;99.90
9808;DHT22;4943;52.550;13.462;2022-12-07T04:58:11;6.20;99.90
9808;DHT22;4943;52.550;13.462;2022-12-07T05:00:39;6.20;99.90
9808;DHT22;4943;52.550;13.462;2022-12-07T05:03:08;6.20;99.90
9808;DHT22;4943;52.550;13.462;2022-12-07T05:05:40;6.20;99.90
9808;DHT22;4943;52.550;13.462;2022-12-07T05:08:09;6.20;99.90
9808;DHT22;4943;52.550;13.462;2022-12-07T05:10:39;6.20;99.90
9808;DHT22;4943;52.550;13.462;2022-12-07T05:13:08;6.20;99.90
9808;DHT22;4943;52.550;13.462;2022-12-07T05:15:37;6.20;99.90
9808;DHT22;4943;52.550;13.462;2022-12-07T05:18:05;6.20;99.90
9808;DHT22;4943;52.550;13.462;2022-12-07T05:20:34;6.20;99.90
9808;DHT22;4943;52.550;13.462;2022-12-07T05:23:08;6.30;99.90
9808;DHT22;4943;52.550;13.462;2022-12-07T05:25:38;6.30;99.90
9808;DHT22;4943;52.550;13.462;2022-12-07T05:28:07;6.20;99.90
9808;DHT22;4943;52.550;13.462;2022-12-07T05:30:36;6.20;99.90
9808;DHT22;4943;52.550;13.462;2022-12-07T05:33:04;6.30;99.90
9808;DHT22;4943;52.550;13.462;2022-12-07T05:35:33;6.30;99.90
9808;DHT22;4943;52.550;13.462;2022-12-07T05:38:02;6.30;99.90
9808;DHT22;4943;52.550;13.462;2022-12-07T05:40:31;6.30;99.90
9808;DHT22;4943;52.550;13.462;2022-12-07T05:43:01;6.30;99.90
9808;DHT22;4943;52.550;13.462;2022-12-07T05:45:30;6.30;99.90
9808;DHT22;4943;52.550;13.462;2022-12-07T05:47:59;6.30;99.90
9808;DHT22;4943;52.550;13.462;2022-12-07T05:50:28;6.30;99.90
9808;DHT22;4943;52.550;13.462;2022-12-07T05:52:56;6.30;99.90
9808;DHT22;4943;52.550;13.462;2022-12-07T05:55:25;6.30;99.90
9808;DHT22;4943;52.550;13.462;2022-12-07T05:57:53;6.30;99.90
9808;DHT22;4943;52.550;13.462;2022-12-07T06:00:46;6.40;99.90
9808;DHT22;4943;52.550;13.462;2022-12-07T06:03:17;6.40;99.90
9808;DHT22;4943;52.550;13.462;2022-12-07T06:05:46;6.40;99.90
9808;DHT22;4943;52.550;13.462;2022-12-07T06:08:14;6.40;99.90
9808;DHT22;4943;52.550;13.462;2022-12-07T06:10:43;6.40;99.90
9808;DHT22;4943;52.550;13.462;2022-12-07T06:13:12;6.40;99.90
9808;DHT22;4943;52.550;13.462;2022-12-07T06:15:40;6.50;99.90
9808;DHT22;4943;52.550;13.462;2022-12-07T06:18:10;6.50;99.90
9808;DHT22;4943;52.550;13.462;2022-12-07T06:20:39;6.50;99.90
9808;DHT22;4943;52.550;13.462;2022-12-07T06:23:07;6.50;99.90
9808;DHT22;4943;52.550;13.462;2022-12-07T06:25:36;6.50;99.90
9808;DHT22;4943;52.550;13.462;2022-12-07T06:28:04;6.60;99.90
9808;DHT22;4943;52.550;13.462;2022-12-07T06:30:33;6.60;99.90
9808;DHT22;4943;52.550;13.462;2022-12-07T06:33:01;6.60;99.90
9808;DHT22;4943;52.550;13.462;2022-12-07T06:35:32;6.60;99.90
9808;DHT22;4943;52.550;13.462;2022-12-07T06:38:01;6.60;99.90
9808;DHT22;4943;52.550;13.462;2022-12-07T06:40:29;6.60;99.90
9808;DHT22;4943;52.550;13.462;2022-12-07T06:42:58;6.60;99.90
9808;DHT22;4943;52.550;13.462;2022-12-07T06:45:26;6.60;99.90
9808;DHT22;4943;52.550;13.462;2022-12-07T06:47:55;6.60;99.90
9808;DHT22;4943;52.550;13.462;2022-12-07T06:50:24;6.70;99.90
9808;DHT22;4943;52.550;13.462;2022-12-07T06:52:54;6.70;99.90
9808;DHT22;4943;52.550;13.462;2022-12-07T06:55:23;6.70;99.90
9808;DHT22;4943;52.550;13.462;2022-12-07T06:57:51;6.70;99.90
9808;DHT22;4943;52.550;13.462;2022-12-07T07:00:20;6.70;99.90
9808;DHT22;4943;52.550;13.462;2022-12-07T07:02:49;6.70;99.90
9808;DHT22;4943;52.550;13.462;2022-12-07T07:05:17;6.70;99.90
9808;DHT22;4943;52.550;13.462;2022-12-07T07:07:48;6.70;99.90
9808;DHT22;4943;52.550;13.462;2022-12-07T07:10:38;6.70;99.90
9808;DHT22;4943;52.550;13.462;2022-12-07T07:13:07;6.70;99.90
9808;DHT22;4943;52.550;13.462;2022-12-07T07:15:37;6.70;99.90
9808;DHT22;4943;52.550;13.462;2022-12-07T07:18:06;6.70;99.90
9808;DHT22;4943;52.550;13.462;2022-12-07T07:20:35;6.70;99.90
9808;DHT22;4943;52.550;13.462;2022-12-07T07:23:05;6.70;99.90
9808;DHT22;4943;52.550;13.462;2022-12-07T07:25:34;6.70;99.90
9808;DHT22;4943;52.550;13.462;2022-12-07T07:28:04;6.70;99.90
9808;DHT22;4943;52.550;13.462;2022-12-07T07:30:33;6.70;99.90
9808;DHT22;4943;52.550;13.462;2022-12-07T07:33:02;6.70;99.90
9808;DHT22;4943;52.550;13.462;2022-12-07T07:35:33;6.70;99.90
9808;DHT22;4943;52.550;13.462;2022-12-07T07:38:02;6.60;99.90
9808;DHT22;4943;52.550;13.462;2022-12-07T07:40:31;6.60;99.90
9808;DHT22;4943;52.550;13.462;2022-12-07T07:42:59;6.60;99.90
9808;DHT22;4943;52.550;13.462;2022-12-07T07:45:29;6.50;99.90
9808;DHT22;4943;52.550;13.462;2022-12-07T07:47:58;6.60;99.90
9808;DHT22;4943;52.550;13.462;2022-12-07T07:50:27;6.60;99.90
9808;DHT22;4943;52.550;13.462;2022-12-07T07:52:57;6.60;99.90
9808;DHT22;4943;52.550;13.462;2022-12-07T07:55:26;6.60;99.90
9808;DHT22;4943;52.550;13.462;2022-12-07T07:57:56;6.60;99.90
9808;DHT22;4943;52.550;13.462;2022-12-07T08:00:25;6.60;99.90
9808;DHT22;4943;52.550;13.462;2022-12-07T08:02:55;6.60;99.90
9808;DHT22;4943;52.550;13.462;2022-12-07T08:05:24;6.60;99.90
9808;DHT22;4943;52.550;13.462;2022-12-07T08:07:52;6.60;99.90
9808;DHT22;4943;52.550;13.462;2022-12-07T08:10:21;6.70;99.90
9808;DHT22;4943;52.550;13.462;2022-12-07T08:12:49;6.60;99.90
9808;DHT22;4943;52.550;13.462;2022-12-07T08:15:38;6.60;99.90
9808;DHT22;4943;52.550;13.462;2022-12-07T08:18:08;6.60;99.90
9808;DHT22;4943;52.550;13.462;2022-12-07T08:20:38;6.60;99.90
9808;DHT22;4943;52.550;13.462;2022-12-07T08:23:08;6.60;99.90
9808;DHT22;4943;52.550;13.462;2022-12-07T08:25:37;6.60;99.90
9808;DHT22;4943;52.550;13.462;2022-12-07T08:28:06;6.60;99.90
9808;DHT22;4943;52.550;13.462;2022-12-07T08:30:35;6.60;99.90
9808;DHT22;4943;52.550;13.462;2022-12-07T08:33:03;6.60;99.90
9808;DHT22;4943;52.550;13.462;2022-12-07T08:35:34;6.60;99.90
9808;DHT22;4943;52.550;13.462;2022-12-07T08:38:03;6.60;99.90
9808;DHT22;4943;52.550;13.462;2022-12-07T08:40:31;6.50;99.90
9808;DHT22;4943;52.550;13.462;2022-12-07T08:43:00;6.60;99.90
9808;DHT22;4943;52.550;13.462;2022-12-07T08:45:29;6.60;99.90
9808;DHT22;4943;52.550;13.462;2022-12-07T08:48:03;6.60;99.90
9808;DHT22;4943;52.550;13.462;2022-12-07T08:50:36;6.70;99.90
9808;DHT22;4943;52.550;13.462;2022-12-07T08:53:13;6.70;99.90
9808;DHT22;4943;52.550;13.462;2022-12-07T08:55:42;6.70;99.90
9808;DHT22;4943;52.550;13.462;2022-12-07T08:58:12;6.70;99.90
9808;DHT22;4943;52.550;13.462;2022-12-07T09:00:40;6.70;99.90
9808;DHT22;4943;52.550;13.462;2022-12-07T09:03:09;6.60;99.90
9808;DHT22;4943;52.550;13.462;2022-12-07T09:05:39;6.60;99.90
9808;DHT22;4943;52.550;13.462;2022-12-07T09:08:08;6.70;99.90
9808;DHT22;4943;52.550;13.462;2022-12-07T09:10:37;6.70;99.90
9808;DHT22;4943;52.550;13.462;2022-12-07T09:13:05;6.70;99.90
9808;DHT22;4943;52.550;13.462;2022-12-07T09:15:34;6.70;99.90
9808;DHT22;4943;52.550;13.462;2022-12-07T09:18:03;6.80;99.90
9808;DHT22;4943;52.550;13.462;2022-12-07T09:20:31;6.80;99.90
9808;DHT22;4943;52.550;13.462;2022-12-07T09:23:02;6.80;99.90
9808;DHT22;4943;52.550;13.462;2022-12-07T09:25:31;6.80;99.90
9808;DHT22;4943;52.550;13.462;2022-12-07T09:27:59;6.90;99.90
9808;DHT22;4943;52.550;13.462;2022-12-07T09:30:28;6.90;99.90
9808;DHT22;4943;52.550;13.462;2022-12-07T09:32:59;6.90;99.90
9808;DHT22;4943;52.550;13.462;2022-12-07T09:35:28;6.90;99.90
9808;DHT22;4943;52.550;13.462;2022-12-07T09:37:57;6.90;99.90
9808;DHT22;4943;52.550;13.462;2022-12-07T09:40:28;6.80;99.90
9808;DHT22;4943;52.550;13.462;2022-12-07T09:42:56;6.80;99.90
9808;DHT22;4943;52.550;13.462;2022-12-07T09:45:28;6.80;99.90
9808;DHT22;4943;52.550;13.462;2022-12-07T09:47:57;6.70;99.90
9808;DHT22;4943;52.550;13.462;2022-12-07T09:50:27;6.70;99.90
9808;DHT22;4943;52.550;13.462;2022-12-07T09:53:05;6.70;99.90
9808;DHT22;4943;52.550;13.462;2022-12-07T09:55:38;6.80;99.90
9808;DHT22;4943;52.550;13.462;2022-12-07T09:58:13;6.70;99.90
9808;DHT22;4943;52.550;13.462;2022-12-07T10:00:46;6.70;99.90
9808;DHT22;4943;52.550;13.462;2022-12-07T10:03:14;6.70;99.90
9808;DHT22;4943;52.550;13.462;2022-12-07T10:05:47;6.70;99.90
9808;DHT22;4943;52.550;13.462;2022-12-07T10:08:17;6.70;99.90
9808;DHT22;4943;52.550;13.462;2022-12-07T10:10:50;6.70;99.90
9808;DHT22;4943;52.550;13.462;2022-12-07T10:13:21;6.70;99.90
9808;DHT22;4943;52.550;13.462;2022-12-07T10:15:53;6.60;99.90
9808;DHT22;4943;52.550;13.462;2022-12-07T10:18:27;6.60;99.90
9808;DHT22;4943;52.550;13.462;2022-12-07T10:21:03;6.70;99.90
9808;DHT22;4943;52.550;13.462;2022-12-07T10:23:32;6.70;99.90
9808;DHT22;4943;52.550;13.462;2022-12-07T10:26:20;6.70;99.90
9808;DHT22;4943;52.550;13.462;2022-12-07T10:28:49;6.70;99.90
9808;DHT22;4943;52.550;13.462;2022-12-07T10:31:20;6.70;99.90
9808;DHT22;4943;52.550;13.462;2022-12-07T10:33:51;6.70;99.90
9808;DHT22;4943;52.550;13.462;2022-12-07T10:36:23;6.70;99.90
9808;DHT22;4943;52.550;13.462;2022-12-07T10:38:59;6.80;99.90
9808;DHT22;4943;52.550;13.462;2022-12-07T10:41:29;6.80;99.90
9808;DHT22;4943;52.550;13.462;2022-12-07T10:43:58;6.90;99.90
9808;DHT22;4943;52.550;13.462;2022-12-07T10:46:44;6.90;99.90
9808;DHT22;4943;52.550;13.462;2022-12-07T10:49:41;6.90;99.90
9808;DHT22;4943;52.550;13.462;2022-12-07T10:52:20;6.90;99.90
9808;DHT22;4943;52.550;13.462;2022-12-07T10:54:58;6.80;99.90
9808;DHT22;4943;52.550;13.462;2022-12-07T10:57:43;6.80;99.90
9808;DHT22;4943;52.550;13.462;2022-12-07T11:00:18;6.80;99.90
9808;DHT22;4943;52.550;13.462;2022-12-07T11:03:20;6.90;99.90
9808;DHT22;4943;52.550;13.462;2022-12-07T11:05:59;6.90;99.90
9808;DHT22;4943;52.550;13.462;2022-12-07T11:08:44;6.90;99.90
9808;DHT22;4943;52.550;13.462;2022-12-07T11:11:19;6.90;99.90
9808;DHT22;4943;52.550;13.462;2022-12-07T11:13:59;6.90;99.90
9808;DHT22;4943;52.550;13.462;2022-12-07T11:16:38;6.90;99.90
9808;DHT22;4943;52.550;13.462;2022-12-07T11:19:21;7.00;99.90
9808;DHT22;4943;52.550;13.462;2022-12-07T11:21:57;6.90;99.90
9808;DHT22;4943;52.550;13.462;2022-12-07T11:24:32;6.90;99.90
9808;DHT22;4943;52.550;13.462;2022-12-07T11:27:10;6.90;99.90
9808;DHT22;4943;52.550;13.462;2022-12-07T11:30:02;6.90;99.90
9808;DHT22;4943;52.550;13.462;2022-12-07T11:32:47;6.90;99.90
9808;DHT22;4943;52.550;13.462;2022-12-07T11:35:23;6.90;99.90
9808;DHT22;4943;52.550;13.462;2022-12-07T11:38:00;6.90;99.90
9808;DHT22;4943;52.550;13.462;2022-12-07T11:40:31;6.90;99.90
9808;DHT22;4943;52.550;13.462;2022-12-07T11:43:07;6.90;99.90
9808;DHT22;4943;52.550;13.462;2022-12-07T11:45:47;7.00;99.90
9808;DHT22;4943;52.550;13.462;2022-12-07T11:48:22;7.00;99.90
9808;DHT22;4943;52.550;13.462;2022-12-07T11:50:54;7.00;99.90
9808;DHT22;4943;52.550;13.462;2022-12-07T11:53:27;7.10;99.90
9808;DHT22;4943;52.550;13.462;2022-12-07T11:56:03;7.10;99.90
9808;DHT22;4943;52.550;13.462;2022-12-07T11:58:44;7.20;99.90
9808;DHT22;4943;52.550;13.462;2022-12-07T12:01:31;7.20;99.90
9808;DHT22;4943;52.550;13.462;2022-12-07T12:04:11;7.20;99.90
9808;DHT22;4943;52.550;13.462;2022-12-07T12:06:45;7.20;99.90
9808;DHT22;4943;52.550;13.462;2022-12-07T12:09:16;7.20;99.90
9808;DHT22;4943;52.550;13.462;2022-12-07T12:12:31;7.30;99.90
9808;DHT22;4943;52.550;13.462;2022-12-07T12:15:35;7.30;99.90
9808;DHT22;4943;52.550;13.462;2022-12-07T12:18:26;7.30;99.90
9808;DHT22;4943;52.550;13.462;2022-12-07T12:21:03;7.40;99.90
9808;DHT22;4943;52.550;13.462;2022-12-07T12:23:38;7.30;99.90
9808;DHT22;4943;52.550;13.462;2022-12-07T12:26:16;7.30;99.90
9808;DHT22;4943;52.550;13.462;2022-12-07T12:28:53;7.40;99.90
9808;DHT22;4943;52.550;13.462;2022-12-07T12:31:33;7.40;99.90
9808;DHT22;4943;52.550;13.462;2022-12-07T12:34:32;7.40;99.90
9808;DHT22;4943;52.550;13.462;2022-12-07T12:37:01;7.50;99.90
9808;DHT22;4943;52.550;13.462;2022-12-07T12:39:30;7.50;99.90
9808;DHT22;4943;52.550;13.462;2022-12-07T12:42:00;7.40;99.90
9808;DHT22;4943;52.550;13.462;2022-12-07T12:44:42;7.40;99.90
9808;DHT22;4943;52.550;13.462;2022-12-07T12:47:51;7.50;99.90
9808;DHT22;4943;52.550;13.462;2022-12-07T12:50:24;7.50;99.90
9808;DHT22;4943;52.550;13.462;2022-12-07T12:52:58;7.50;99.90
9808;DHT22;4943;52.550;13.462;2022-12-07T12:55:50;7.50;99.90
9808;DHT22;4943;52.550;13.462;2022-12-07T12:58:40;7.50;99.90
9808;DHT22;4943;52.550;13.462;2022-12-07T13:01:37;7.50;99.90
9808;DHT22;4943;52.550;13.462;2022-12-07T13:04:38;7.50;99.90
9808;DHT22;4943;52.550;13.462;2022-12-07T13:07:47;7.50;99.90
9808;DHT22;4943;52.550;13.462;2022-12-07T13:10:32;7.50;99.90
9808;DHT22;4943;52.550;13.462;2022-12-07T13:13:04;7.50;99.90
9808;DHT22;4943;52.550;13.462;2022-12-07T13:15:35;7.50;99.90
9808;DHT22;4943;52.550;13.462;2022-12-07T13:18:24;7.50;99.90
9808;DHT22;4943;52.550;13.462;2022-12-07T13:20:55;7.50;99.90
9808;DHT22;4943;52.550;13.462;2022-12-07T13:23:35;7.40;99.90
9808;DHT22;4943;52.550;13.462;2022-12-07T13:26:16;7.30;99.90
9808;DHT22;4943;52.550;13.462;2022-12-07T13:28:48;7.30;99.90
9808;DHT22;4943;52.550;13.462;2022-12-07T13:31:26;7.30;99.90
9808;DHT22;4943;52.550;13.462;2022-12-07T13:33:59;7.30;99.90
9808;DHT22;4943;52.550;13.462;2022-12-07T13:36:31;7.30;99.90
9808;DHT22;4943;52.550;13.462;2022-12-07T13:39:21;7.20;99.90
9808;DHT22;4943;52.550;13.462;2022-12-07T13:41:52;7.30;99.90
9808;DHT22;4943;52.550;13.462;2022-12-07T13:44:21;7.30;99.90
9808;DHT22;4943;52.550;13.462;2022-12-07T13:46:57;7.20;99.90
9808;DHT22;4943;52.550;13.462;2022-12-07T13:49:29;7.30;99.90
9808;DHT22;4943;52.550;13.462;2022-12-07T13:52:14;7.30;99.90
9808;DHT22;4943;52.550;13.462;2022-12-07T13:54:46;7.30;99.90
9808;DHT22;4943;52.550;13.462;2022-12-07T13:57:16;7.30;99.90
9808;DHT22;4943;52.550;13.462;2022-12-07T13:59:45;7.30;99.90
9808;DHT22;4943;52.550;13.462;2022-12-07T14:02:19;7.20;99.90
9808;DHT22;4943;52.550;13.462;2022-12-07T14:04:50;7.20;99.90
9808;DHT22;4943;52.550;13.462;2022-12-07T14:07:22;7.20;99.90
9808;DHT22;4943;52.550;13.462;2022-12-07T14:09:59;7.20;99.90
9808;DHT22;4943;52.550;13.462;2022-12-07T14:12:30;7.20;99.90
9808;DHT22;4943;52.550;13.462;2022-12-07T14:15:00;7.20;99.90
9808;DHT22;4943;52.550;13.462;2022-12-07T14:17:29;7.20;99.90
9808;DHT22;4943;52.550;13.462;2022-12-07T14:20:00;7.20;99.90
9808;DHT22;4943;52.550;13.462;2022-12-07T14:22:31;7.20;99.90
9808;DHT22;4943;52.550;13.462;2022-12-07T14:25:21;7.10;99.90
9808;DHT22;4943;52.550;13.462;2022-12-07T14:27:54;7.00;99.90
9808;DHT22;4943;52.550;13.462;2022-12-07T14:30:26;7.00;99.90
9808;DHT22;4943;52.550;13.462;2022-12-07T14:32:58;7.00;99.90
9808;DHT22;4943;52.550;13.462;2022-12-07T14:35:28;7.00;99.90
9808;DHT22;4943;52.550;13.462;2022-12-07T14:37:58;7.00;99.90
9808;DHT22;4943;52.550;13.462;2022-12-07T14:40:29;7.00;99.90
9808;DHT22;4943;52.550;13.462;2022-12-07T14:43:02;7.10;99.90
9808;DHT22;4943;52.550;13.462;2022-12-07T14:45:31;7.10;99.90
9808;DHT22;4943;52.550;13.462;2022-12-07T14:48:00;7.20;99.90
9808;DHT22;4943;52.550;13.462;2022-12-07T14:50:51;7.10;99.90
9808;DHT22;4943;52.550;13.462;2022-12-07T14:53:44;7.10;99.90
9808;DHT22;4943;52.550;13.462;2022-12-07T14:56:24;7.10;99.90
9808;DHT22;4943;52.550;13.462;2022-12-07T14:58:54;7.10;99.90
9808;DHT22;4943;52.550;13.462;2022-12-07T15:01:23;7.00;99.90
9808;DHT22;4943;52.550;13.462;2022-12-07T15:03:52;7.00;99.90
9808;DHT22;4943;52.550;13.462;2022-12-07T15:06:21;6.90;99.90
9808;DHT22;4943;52.550;13.462;2022-12-07T15:08:49;6.90;99.90
9808;DHT22;4943;52.550;13.462;2022-12-07T15:11:19;6.90;99.90
9808;DHT22;4943;52.550;13.462;2022-12-07T15:13:49;6.80;99.90
9808;DHT22;4943;52.550;13.462;2022-12-07T15:16:39;6.80;99.90
9808;DHT22;4943;52.550;13.462;2022-12-07T15:19:28;6.80;99.90
9808;DHT22;4943;52.550;13.462;2022-12-07T15:21:57;6.70;99.90
9808;DHT22;4943;52.550;13.462;2022-12-07T15:24:27;6.70;99.90
9808;DHT22;4943;52.550;13.462;2022-12-07T15:26:55;6.70;99.90
9808;DHT22;4943;52.550;13.462;2022-12-07T15:29:26;6.70;99.90
9808;DHT22;4943;52.550;13.462;2022-12-07T15:31:55;6.70;99.90
9808;DHT22;4943;52.550;13.462;2022-12-07T15:34:25;6.70;99.90
9808;DHT22;4943;52.550;13.462;2022-12-07T15:37:04;6.70;99.90
9808;DHT22;4943;52.550;13.462;2022-12-07T15:39:33;6.60;99.90
9808;DHT22;4943;52.550;13.462;2022-12-07T15:42:02;6.60;99.90
9808;DHT22;4943;52.550;13.462;2022-12-07T15:44:32;6.50;99.90
9808;DHT22;4943;52.550;13.462;2022-12-07T15:47:18;6.50;99.90
9808;DHT22;4943;52.550;13.462;2022-12-07T15:49:47;6.40;99.90
9808;DHT22;4943;52.550;13.462;2022-12-07T15:52:16;6.40;99.90
9808;DHT22;4943;52.550;13.462;2022-12-07T15:54:46;6.40;99.90
9808;DHT22;4943;52.550;13.462;2022-12-07T15:57:15;6.40;99.90
9808;DHT22;4943;52.550;13.462;2022-12-07T15:59:53;6.40;99.90
9808;DHT22;4943;52.550;13.462;2022-12-07T16:02:22;6.40;99.90
9808;DHT22;4943;52.550;13.462;2022-12-07T16:04:51;6.40;99.90
9808;DHT22;4943;52.550;13.462;2022-12-07T16:07:20;6.50;99.90
9808;DHT22;4943;52.550;13.462;2022-12-07T16:09:48;6.50;99.90
9808;DHT22;4943;52.550;13.462;2022-12-07T16:12:18;6.60;99.90
9808;DHT22;4943;52.550;13.462;2022-12-07T16:14:46;6.70;99.90
9808;DHT22;4943;52.550;13.462;2022-12-07T16:17:16;6.70;99.90
9808;DHT22;4943;52.550;13.462;2022-12-07T16:19:45;6.80;99.90
9808;DHT22;4943;52.550;13.462;2022-12-07T16:22:13;6.70;99.90
9808;DHT22;4943;52.550;13.462;2022-12-07T16:24:42;6.70;99.90
9808;DHT22;4943;52.550;13.462;2022-12-07T16:27:11;6.60;99.90
9808;DHT22;4943;52.550;13.462;2022-12-07T16:29:39;6.60;99.90
9808;DHT22;4943;52.550;13.462;2022-12-07T16:32:08;6.50;99.90
9808;DHT22;4943;52.550;13.462;2022-12-07T16:34:39;6.50;99.90
9808;DHT22;4943;52.550;13.462;2022-12-07T16:37:09;6.50;99.90
9808;DHT22;4943;52.550;13.462;2022-12-07T16:39:37;6.50;99.90